Terminal Aerodrome Forecast
Issued by NWS

Home | Current Version | Previous Version | Graphics & Text | Print | Product List | Glossary On
Versions: 1 2 3 4 5 6 7 8 9 10 11 12 13
194
FTUS43 KICT 030909 AAB
TAFHUT
TAF AMD
KHUT 030909Z 0309/0406 33018G28KT P6SM OVC025
     FM031200 32017G24KT P6SM FEW025 BKN050
     FM031400 32015G23KT P6SM SCT035 SCT110
     FM032200 32011KT P6SM SCT250=

USA.gov is the U.S. government's official web portal to all federal, state and local government web resources and services.